sensor_id;sensor_type;location;lat;lon;timestamp;temperature;humidity
12885;DHT22;6510;51.362;7.370;2022-09-09T03:01:06;14.40;99.90
12885;DHT22;6510;51.362;7.370;2022-09-09T03:03:34;14.40;99.90
12885;DHT22;6510;51.362;7.370;2022-09-09T03:06:00;14.50;99.90
12885;DHT22;6510;51.362;7.370;2022-09-09T03:08:26;14.50;99.90
12885;DHT22;6510;51.362;7.370;2022-09-09T03:10:54;14.40;99.90
12885;DHT22;6510;51.362;7.370;2022-09-09T03:13:19;14.30;99.90
12885;DHT22;6510;51.362;7.370;2022-09-09T03:15:45;14.30;99.90
12885;DHT22;6510;51.362;7.370;2022-09-09T03:18:10;14.30;99.90
12885;DHT22;6510;51.362;7.370;2022-09-09T03:20:36;14.30;99.90
12885;DHT22;6510;51.362;7.370;2022-09-09T03:23:02;14.20;99.90
12885;DHT22;6510;51.362;7.370;2022-09-09T03:25:28;14.20;99.90
12885;DHT22;6510;51.362;7.370;2022-09-09T03:27:56;14.20;99.90
12885;DHT22;6510;51.362;7.370;2022-09-09T03:30:23;14.20;99.90
12885;DHT22;6510;51.362;7.370;2022-09-09T03:32:49;14.20;99.90
12885;DHT22;6510;51.362;7.370;2022-09-09T03:35:15;14.20;99.90
12885;DHT22;6510;51.362;7.370;2022-09-09T03:37:41;14.20;99.90
12885;DHT22;6510;51.362;7.370;2022-09-09T03:40:07;14.20;99.90
12885;DHT22;6510;51.362;7.370;2022-09-09T03:42:35;14.20;99.90
12885;DHT22;6510;51.362;7.370;2022-09-09T03:45:09;14.20;99.90
12885;DHT22;6510;51.362;7.370;2022-09-09T03:47:36;14.20;99.90
12885;DHT22;6510;51.362;7.370;2022-09-09T03:50:01;14.20;99.90
12885;DHT22;6510;51.362;7.370;2022-09-09T03:52:27;14.30;99.90
12885;DHT22;6510;51.362;7.370;2022-09-09T03:54:53;14.30;99.90
12885;DHT22;6510;51.362;7.370;2022-09-09T03:57:19;14.30;99.90
12885;DHT22;6510;51.362;7.370;2022-09-09T03:59:45;14.40;99.90
12885;DHT22;6510;51.362;7.370;2022-09-09T04:02:11;14.40;99.90
12885;DHT22;6510;51.362;7.370;2022-09-09T04:04:36;14.40;99.90
12885;DHT22;6510;51.362;7.370;2022-09-09T04:07:03;14.40;99.90
12885;DHT22;6510;51.362;7.370;2022-09-09T04:09:31;14.40;99.90
12885;DHT22;6510;51.362;7.370;2022-09-09T04:11:56;14.40;99.90
12885;DHT22;6510;51.362;7.370;2022-09-09T04:14:22;14.40;99.90
12885;DHT22;6510;51.362;7.370;2022-09-09T04:16:48;14.40;99.90
12885;DHT22;6510;51.362;7.370;2022-09-09T04:19:13;14.50;99.90
12885;DHT22;6510;51.362;7.370;2022-09-09T04:21:40;14.40;99.90
12885;DHT22;6510;51.362;7.370;2022-09-09T04:24:07;14.40;99.90
12885;DHT22;6510;51.362;7.370;2022-09-09T04:26:34;14.40;99.90
12885;DHT22;6510;51.362;7.370;2022-09-09T04:29:02;14.50;99.90
12885;DHT22;6510;51.362;7.370;2022-09-09T04:31:28;14.50;99.90
12885;DHT22;6510;51.362;7.370;2022-09-09T04:33:53;14.50;99.90
12885;DHT22;6510;51.362;7.370;2022-09-09T04:36:19;14.50;99.90
12885;DHT22;6510;51.362;7.370;2022-09-09T04:38:45;14.50;99.90
12885;DHT22;6510;51.362;7.370;2022-09-09T04:41:12;14.50;99.90
12885;DHT22;6510;51.362;7.370;2022-09-09T04:43:38;14.60;99.90
12885;DHT22;6510;51.362;7.370;2022-09-09T04:46:05;14.60;99.90
12885;DHT22;6510;51.362;7.370;2022-09-09T04:48:31;14.60;99.90
12885;DHT22;6510;51.362;7.370;2022-09-09T04:50:58;14.60;99.90
12885;DHT22;6510;51.362;7.370;2022-09-09T04:53:24;14.60;99.90
12885;DHT22;6510;51.362;7.370;2022-09-09T04:56:13;14.50;99.90
12885;DHT22;6510;51.362;7.370;2022-09-09T04:58:37;14.60;99.90
12885;DHT22;6510;51.362;7.370;2022-09-09T05:01:15;14.60;99.90
12885;DHT22;6510;51.362;7.370;2022-09-09T05:03:42;14.60;99.90
12885;DHT22;6510;51.362;7.370;2022-09-09T05:06:16;14.60;99.90
12885;DHT22;6510;51.362;7.370;2022-09-09T05:08:43;14.70;99.90
12885;DHT22;6510;51.362;7.370;2022-09-09T05:13:45;14.70;99.90
12885;DHT22;6510;51.362;7.370;2022-09-09T05:16:12;14.80;99.90
12885;DHT22;6510;51.362;7.370;2022-09-09T05:18:39;14.80;99.90
12885;DHT22;6510;51.362;7.370;2022-09-09T05:21:05;14.80;99.90
12885;DHT22;6510;51.362;7.370;2022-09-09T05:23:32;14.90;99.90
12885;DHT22;6510;51.362;7.370;2022-09-09T05:26:03;15.00;99.90
12885;DHT22;6510;51.362;7.370;2022-09-09T05:28:39;15.00;99.90
12885;DHT22;6510;51.362;7.370;2022-09-09T05:31:06;15.00;99.90
12885;DHT22;6510;51.362;7.370;2022-09-09T05:33:38;15.00;99.90
12885;DHT22;6510;51.362;7.370;2022-09-09T05:36:08;15.00;99.90
12885;DHT22;6510;51.362;7.370;2022-09-09T05:38:36;15.00;99.90
12885;DHT22;6510;51.362;7.370;2022-09-09T05:41:02;15.00;99.90
12885;DHT22;6510;51.362;7.370;2022-09-09T05:43:28;15.00;99.90
12885;DHT22;6510;51.362;7.370;2022-09-09T05:46:05;15.10;99.90
12885;DHT22;6510;51.362;7.370;2022-09-09T05:48:33;15.10;99.90
12885;DHT22;6510;51.362;7.370;2022-09-09T05:51:00;15.10;99.90
12885;DHT22;6510;51.362;7.370;2022-09-09T05:53:26;15.10;99.90
12885;DHT22;6510;51.362;7.370;2022-09-09T05:56:03;15.10;99.90
12885;DHT22;6510;51.362;7.370;2022-09-09T05:58:34;15.10;99.90
12885;DHT22;6510;51.362;7.370;2022-09-09T06:01:04;15.20;99.90
12885;DHT22;6510;51.362;7.370;2022-09-09T06:03:30;15.20;99.90
12885;DHT22;6510;51.362;7.370;2022-09-09T06:06:01;15.20;99.90
12885;DHT22;6510;51.362;7.370;2022-09-09T06:08:31;15.20;99.90
12885;DHT22;6510;51.362;7.370;2022-09-09T06:11:02;15.20;99.90
12885;DHT22;6510;51.362;7.370;2022-09-09T06:13:28;15.20;99.90
12885;DHT22;6510;51.362;7.370;2022-09-09T06:15:54;15.20;99.90
12885;DHT22;6510;51.362;7.370;2022-09-09T06:18:20;15.20;99.90
12885;DHT22;6510;51.362;7.370;2022-09-09T06:21:04;15.20;99.90
12885;DHT22;6510;51.362;7.370;2022-09-09T06:23:30;15.20;99.90
12885;DHT22;6510;51.362;7.370;2022-09-09T06:26:35;15.30;99.90
12885;DHT22;6510;51.362;7.370;2022-09-09T06:29:02;15.30;99.90
12885;DHT22;6510;51.362;7.370;2022-09-09T06:31:30;15.40;99.90
12885;DHT22;6510;51.362;7.370;2022-09-09T06:33:57;15.40;99.90
12885;DHT22;6510;51.362;7.370;2022-09-09T06:36:31;15.40;99.90
12885;DHT22;6510;51.362;7.370;2022-09-09T06:38:57;15.50;99.90
12885;DHT22;6510;51.362;7.370;2022-09-09T06:41:25;15.40;99.90
12885;DHT22;6510;51.362;7.370;2022-09-09T06:43:52;15.40;99.90
12885;DHT22;6510;51.362;7.370;2022-09-09T06:46:20;15.30;99.90
12885;DHT22;6510;51.362;7.370;2022-09-09T06:48:47;15.40;99.90
12885;DHT22;6510;51.362;7.370;2022-09-09T06:51:23;15.30;99.90
12885;DHT22;6510;51.362;7.370;2022-09-09T06:53:57;15.10;99.90
12885;DHT22;6510;51.362;7.370;2022-09-09T06:56:34;15.10;99.90
12885;DHT22;6510;51.362;7.370;2022-09-09T06:59:03;15.10;99.90
12885;DHT22;6510;51.362;7.370;2022-09-09T07:01:32;15.10;99.90
12885;DHT22;6510;51.362;7.370;2022-09-09T07:03:59;15.10;99.90
12885;DHT22;6510;51.362;7.370;2022-09-09T07:06:34;15.30;99.90
12885;DHT22;6510;51.362;7.370;2022-09-09T07:09:02;16.00;99.90
12885;DHT22;6510;51.362;7.370;2022-09-09T07:11:31;16.50;99.90
12885;DHT22;6510;51.362;7.370;2022-09-09T07:13:58;15.80;99.90
12885;DHT22;6510;51.362;7.370;2022-09-09T07:16:24;15.90;99.90
12885;DHT22;6510;51.362;7.370;2022-09-09T07:18:51;16.10;99.90
12885;DHT22;6510;51.362;7.370;2022-09-09T07:21:18;15.70;99.90
12885;DHT22;6510;51.362;7.370;2022-09-09T07:23:44;15.70;99.90
12885;DHT22;6510;51.362;7.370;2022-09-09T07:26:15;15.60;99.90
12885;DHT22;6510;51.362;7.370;2022-09-09T07:28:42;15.60;99.90
12885;DHT22;6510;51.362;7.370;2022-09-09T07:31:13;15.90;99.90
12885;DHT22;6510;51.362;7.370;2022-09-09T07:33:40;15.80;99.90
12885;DHT22;6510;51.362;7.370;2022-09-09T07:36:17;15.90;99.90
12885;DHT22;6510;51.362;7.370;2022-09-09T07:38:48;16.10;99.90
12885;DHT22;6510;51.362;7.370;2022-09-09T07:41:29;16.20;99.90
12885;DHT22;6510;51.362;7.370;2022-09-09T07:43:56;16.60;99.90
12885;DHT22;6510;51.362;7.370;2022-09-09T07:46:24;17.30;99.90
12885;DHT22;6510;51.362;7.370;2022-09-09T07:48:53;17.70;99.90
12885;DHT22;6510;51.362;7.370;2022-09-09T07:51:27;17.20;99.90
12885;DHT22;6510;51.362;7.370;2022-09-09T07:53:55;17.30;99.90
12885;DHT22;6510;51.362;7.370;2022-09-09T07:56:23;19.70;99.90
12885;DHT22;6510;51.362;7.370;2022-09-09T07:58:51;20.10;99.90
12885;DHT22;6510;51.362;7.370;2022-09-09T08:01:26;20.20;99.90
12885;DHT22;6510;51.362;7.370;2022-09-09T08:03:58;19.90;99.90
12885;DHT22;6510;51.362;7.370;2022-09-09T08:06:28;19.20;99.90
12885;DHT22;6510;51.362;7.370;2022-09-09T08:08:54;18.80;99.90
12885;DHT22;6510;51.362;7.370;2022-09-09T08:11:22;18.30;99.90
12885;DHT22;6510;51.362;7.370;2022-09-09T08:13:49;18.20;99.90
12885;DHT22;6510;51.362;7.370;2022-09-09T08:16:19;19.40;99.90
12885;DHT22;6510;51.362;7.370;2022-09-09T08:18:47;19.20;99.90
12885;DHT22;6510;51.362;7.370;2022-09-09T08:21:19;19.80;99.90
12885;DHT22;6510;51.362;7.370;2022-09-09T08:23:46;18.30;99.90
12885;DHT22;6510;51.362;7.370;2022-09-09T08:26:19;18.90;99.90
12885;DHT22;6510;51.362;7.370;2022-09-09T08:28:47;19.00;99.90
12885;DHT22;6510;51.362;7.370;2022-09-09T08:31:20;19.00;99.90
12885;DHT22;6510;51.362;7.370;2022-09-09T08:33:46;18.40;99.90
12885;DHT22;6510;51.362;7.370;2022-09-09T08:36:15;19.20;99.90
12885;DHT22;6510;51.362;7.370;2022-09-09T08:38:42;20.00;99.90
12885;DHT22;6510;51.362;7.370;2022-09-09T08:46:46;19.70;99.90
12885;DHT22;6510;51.362;7.370;2022-09-09T08:52:16;21.00;99.90
12885;DHT22;6510;51.362;7.370;2022-09-09T08:54:44;21.50;99.90
12885;DHT22;6510;51.362;7.370;2022-09-09T08:57:16;20.70;99.90
12885;DHT22;6510;51.362;7.370;2022-09-09T08:59:43;21.10;99.90
12885;DHT22;6510;51.362;7.370;2022-09-09T09:03:02;21.60;99.90
12885;DHT22;6510;51.362;7.370;2022-09-09T09:05:08;20.90;99.90
12885;DHT22;6510;51.362;7.370;2022-09-09T09:07:46;20.00;99.90
12885;DHT22;6510;51.362;7.370;2022-09-09T09:12:53;20.70;99.90
12885;DHT22;6510;51.362;7.370;2022-09-09T09:15:23;20.80;99.90
12885;DHT22;6510;51.362;7.370;2022-09-09T09:17:49;21.50;99.90
12885;DHT22;6510;51.362;7.370;2022-09-09T09:20:16;21.30;99.90
12885;DHT22;6510;51.362;7.370;2022-09-09T09:22:48;20.20;99.90
12885;DHT22;6510;51.362;7.370;2022-09-09T09:25:22;21.20;99.90
12885;DHT22;6510;51.362;7.370;2022-09-09T09:30:35;21.80;99.90
12885;DHT22;6510;51.362;7.370;2022-09-09T09:35:49;20.10;99.90
12885;DHT22;6510;51.362;7.370;2022-09-09T09:38:21;20.40;99.90
12885;DHT22;6510;51.362;7.370;2022-09-09T09:40:53;20.90;99.90
12885;DHT22;6510;51.362;7.370;2022-09-09T09:43:37;20.20;99.90
12885;DHT22;6510;51.362;7.370;2022-09-09T09:46:05;19.30;99.90
12885;DHT22;6510;51.362;7.370;2022-09-09T09:48:43;19.40;99.90
12885;DHT22;6510;51.362;7.370;2022-09-09T09:51:11;19.10;99.90
12885;DHT22;6510;51.362;7.370;2022-09-09T09:53:41;19.10;99.90
12885;DHT22;6510;51.362;7.370;2022-09-09T09:56:10;19.90;99.90
12885;DHT22;6510;51.362;7.370;2022-09-09T09:58:55;20.10;99.90
12885;DHT22;6510;51.362;7.370;2022-09-09T10:01:26;21.70;99.90
12885;DHT22;6510;51.362;7.370;2022-09-09T10:04:13;21.70;99.90
12885;DHT22;6510;51.362;7.370;2022-09-09T10:06:40;22.80;99.90
12885;DHT22;6510;51.362;7.370;2022-09-09T10:09:25;22.40;99.90
12885;DHT22;6510;51.362;7.370;2022-09-09T10:20:16;21.30;99.90
12885;DHT22;6510;51.362;7.370;2022-09-09T10:22:49;21.60;99.90
12885;DHT22;6510;51.362;7.370;2022-09-09T10:28:08;20.70;99.90
12885;DHT22;6510;51.362;7.370;2022-09-09T10:31:17;20.90;99.90
12885;DHT22;6510;51.362;7.370;2022-09-09T10:36:48;20.60;99.90
12885;DHT22;6510;51.362;7.370;2022-09-09T10:39:35;22.30;99.90
12885;DHT22;6510;51.362;7.370;2022-09-09T10:42:05;20.90;99.90
12885;DHT22;6510;51.362;7.370;2022-09-09T10:53:00;19.00;99.90
12885;DHT22;6510;51.362;7.370;2022-09-09T10:55:41;19.10;99.90
12885;DHT22;6510;51.362;7.370;2022-09-09T10:58:14;18.80;99.90
12885;DHT22;6510;51.362;7.370;2022-09-09T11:00:57;21.10;99.90
12885;DHT22;6510;51.362;7.370;2022-09-09T11:03:28;21.30;99.90
12885;DHT22;6510;51.362;7.370;2022-09-09T11:06:04;21.20;99.90
12885;DHT22;6510;51.362;7.370;2022-09-09T11:08:34;20.40;99.90
12885;DHT22;6510;51.362;7.370;2022-09-09T11:16:33;21.50;99.90
12885;DHT22;6510;51.362;7.370;2022-09-09T11:21:42;21.60;99.90
12885;DHT22;6510;51.362;7.370;2022-09-09T11:24:29;22.60;99.90
12885;DHT22;6510;51.362;7.370;2022-09-09T11:27:18;21.20;99.90
12885;DHT22;6510;51.362;7.370;2022-09-09T11:38:26;21.50;99.90
12885;DHT22;6510;51.362;7.370;2022-09-09T11:40:58;21.40;99.90
12885;DHT22;6510;51.362;7.370;2022-09-09T11:43:40;21.00;99.90
12885;DHT22;6510;51.362;7.370;2022-09-09T11:46:07;20.90;99.90
12885;DHT22;6510;51.362;7.370;2022-09-09T11:48:40;21.70;99.90
12885;DHT22;6510;51.362;7.370;2022-09-09T11:51:13;21.80;99.90
12885;DHT22;6510;51.362;7.370;2022-09-09T11:56:54;22.10;99.90
12885;DHT22;6510;51.362;7.370;2022-09-09T11:59:24;21.50;99.90
12885;DHT22;6510;51.362;7.370;2022-09-09T12:01:58;21.00;99.90
12885;DHT22;6510;51.362;7.370;2022-09-09T12:09:52;20.80;99.90
12885;DHT22;6510;51.362;7.370;2022-09-09T12:12:25;20.30;99.90
12885;DHT22;6510;51.362;7.370;2022-09-09T12:17:30;19.90;99.90
12885;DHT22;6510;51.362;7.370;2022-09-09T12:20:02;19.60;99.90
12885;DHT22;6510;51.362;7.370;2022-09-09T12:25:21;19.10;99.90
12885;DHT22;6510;51.362;7.370;2022-09-09T12:30:59;18.90;99.90
12885;DHT22;6510;51.362;7.370;2022-09-09T12:33:23;18.30;99.90
12885;DHT22;6510;51.362;7.370;2022-09-09T12:35:55;18.90;99.90
12885;DHT22;6510;51.362;7.370;2022-09-09T12:38:37;19.80;99.90
12885;DHT22;6510;51.362;7.370;2022-09-09T12:41:04;20.20;99.90
12885;DHT22;6510;51.362;7.370;2022-09-09T12:43:30;21.00;99.90
12885;DHT22;6510;51.362;7.370;2022-09-09T12:46:02;20.60;99.90
12885;DHT22;6510;51.362;7.370;2022-09-09T12:48:49;22.80;99.90
12885;DHT22;6510;51.362;7.370;2022-09-09T12:51:25;23.60;99.90
12885;DHT22;6510;51.362;7.370;2022-09-09T12:53:52;22.60;99.90
12885;DHT22;6510;51.362;7.370;2022-09-09T12:56:24;21.50;99.90
12885;DHT22;6510;51.362;7.370;2022-09-09T12:58:53;20.60;99.90
12885;DHT22;6510;51.362;7.370;2022-09-09T13:01:31;20.30;99.90
12885;DHT22;6510;51.362;7.370;2022-09-09T13:03:59;20.00;99.90
12885;DHT22;6510;51.362;7.370;2022-09-09T13:06:27;20.10;99.90
12885;DHT22;6510;51.362;7.370;2022-09-09T13:08:54;20.10;99.90
12885;DHT22;6510;51.362;7.370;2022-09-09T13:11:38;20.40;99.90
12885;DHT22;6510;51.362;7.370;2022-09-09T13:14:18;20.70;99.90
12885;DHT22;6510;51.362;7.370;2022-09-09T13:16:55;22.50;99.90
12885;DHT22;6510;51.362;7.370;2022-09-09T13:19:21;22.20;99.90
12885;DHT22;6510;51.362;7.370;2022-09-09T13:21:47;20.50;99.90
12885;DHT22;6510;51.362;7.370;2022-09-09T13:24:39;20.30;99.90
12885;DHT22;6510;51.362;7.370;2022-09-09T13:27:28;21.00;99.90
12885;DHT22;6510;51.362;7.370;2022-09-09T13:29:55;21.30;99.90
12885;DHT22;6510;51.362;7.370;2022-09-09T13:32:23;20.50;99.90
12885;DHT22;6510;51.362;7.370;2022-09-09T13:34:56;22.50;99.90
12885;DHT22;6510;51.362;7.370;2022-09-09T13:37:33;22.40;99.90
12885;DHT22;6510;51.362;7.370;2022-09-09T13:39:59;22.30;99.90
12885;DHT22;6510;51.362;7.370;2022-09-09T13:42:27;20.90;99.90
12885;DHT22;6510;51.362;7.370;2022-09-09T13:44:55;19.80;99.90
12885;DHT22;6510;51.362;7.370;2022-09-09T13:47:35;19.50;99.90
12885;DHT22;6510;51.362;7.370;2022-09-09T13:50:20;19.00;99.90
12885;DHT22;6510;51.362;7.370;2022-09-09T13:52:52;18.40;99.90
12885;DHT22;6510;51.362;7.370;2022-09-09T13:55:22;17.70;99.90
12885;DHT22;6510;51.362;7.370;2022-09-09T13:57:56;16.80;99.90
12885;DHT22;6510;51.362;7.370;2022-09-09T14:00:23;16.60;99.90
12885;DHT22;6510;51.362;7.370;2022-09-09T14:02:52;16.30;99.90
12885;DHT22;6510;51.362;7.370;2022-09-09T14:05:20;16.50;99.90
12885;DHT22;6510;51.362;7.370;2022-09-09T14:07:48;16.50;99.90
12885;DHT22;6510;51.362;7.370;2022-09-09T14:10:14;16.50;99.90
12885;DHT22;6510;51.362;7.370;2022-09-09T14:12:40;16.50;99.90
12885;DHT22;6510;51.362;7.370;2022-09-09T14:15:07;16.70;99.90
12885;DHT22;6510;51.362;7.370;2022-09-09T14:17:34;16.90;99.90
12885;DHT22;6510;51.362;7.370;2022-09-09T14:20:03;16.90;99.90
12885;DHT22;6510;51.362;7.370;2022-09-09T14:22:31;17.40;99.90
12885;DHT22;6510;51.362;7.370;2022-09-09T14:24:56;19.10;99.90
12885;DHT22;6510;51.362;7.370;2022-09-09T14:27:22;20.20;99.90
12885;DHT22;6510;51.362;7.370;2022-09-09T14:29:48;19.90;99.90
12885;DHT22;6510;51.362;7.370;2022-09-09T14:32:28;19.60;99.90
12885;DHT22;6510;51.362;7.370;2022-09-09T14:34:59;20.60;99.90
12885;DHT22;6510;51.362;7.370;2022-09-09T14:37:25;20.50;99.90
12885;DHT22;6510;51.362;7.370;2022-09-09T14:39:52;19.30;99.90
12885;DHT22;6510;51.362;7.370;2022-09-09T14:42:19;19.50;99.90
12885;DHT22;6510;51.362;7.370;2022-09-09T14:44:44;19.00;99.90
12885;DHT22;6510;51.362;7.370;2022-09-09T14:47:10;18.40;99.90
12885;DHT22;6510;51.362;7.370;2022-09-09T14:49:36;18.20;99.90
12885;DHT22;6510;51.362;7.370;2022-09-09T14:52:03;18.10;99.90
12885;DHT22;6510;51.362;7.370;2022-09-09T14:54:29;17.80;99.90
12885;DHT22;6510;51.362;7.370;2022-09-09T14:56:55;17.70;99.90
12885;DHT22;6510;51.362;7.370;2022-09-09T14:59:22;17.80;99.90
12885;DHT22;6510;51.362;7.370;2022-09-09T15:01:48;17.80;99.90
12885;DHT22;6510;51.362;7.370;2022-09-09T15:04:14;17.90;99.90
12885;DHT22;6510;51.362;7.370;2022-09-09T15:06:43;17.90;99.90
12885;DHT22;6510;51.362;7.370;2022-09-09T15:09:12;17.90;99.90
12885;DHT22;6510;51.362;7.370;2022-09-09T15:11:38;17.70;99.90
12885;DHT22;6510;51.362;7.370;2022-09-09T15:14:05;17.50;99.90
12885;DHT22;6510;51.362;7.370;2022-09-09T15:16:31;17.20;99.90
12885;DHT22;6510;51.362;7.370;2022-09-09T15:18:59;16.80;99.90
12885;DHT22;6510;51.362;7.370;2022-09-09T15:21:27;16.50;99.90
12885;DHT22;6510;51.362;7.370;2022-09-09T15:23:54;16.20;99.90
12885;DHT22;6510;51.362;7.370;2022-09-09T15:26:20;16.10;99.90
12885;DHT22;6510;51.362;7.370;2022-09-09T15:28:47;15.90;99.90
12885;DHT22;6510;51.362;7.370;2022-09-09T15:31:19;15.80;99.90
12885;DHT22;6510;51.362;7.370;2022-09-09T15:33:48;15.70;99.90
12885;DHT22;6510;51.362;7.370;2022-09-09T15:36:22;15.80;99.90
12885;DHT22;6510;51.362;7.370;2022-09-09T15:38:48;15.80;99.90
12885;DHT22;6510;51.362;7.370;2022-09-09T15:41:14;15.70;99.90
12885;DHT22;6510;51.362;7.370;2022-09-09T15:43:47;15.80;99.90
12885;DHT22;6510;51.362;7.370;2022-09-09T15:48:45;15.70;99.90
12885;DHT22;6510;51.362;7.370;2022-09-09T15:51:11;15.30;99.90
12885;DHT22;6510;51.362;7.370;2022-09-09T15:53:39;15.00;99.90
12885;DHT22;6510;51.362;7.370;2022-09-09T15:56:08;14.90;99.90
12885;DHT22;6510;51.362;7.370;2022-09-09T15:58:35;14.70;99.90
12885;DHT22;6510;51.362;7.370;2022-09-09T16:01:08;15.00;99.90
12885;DHT22;6510;51.362;7.370;2022-09-09T16:03:36;14.80;99.90
12885;DHT22;6510;51.362;7.370;2022-09-09T16:06:03;14.80;99.90
12885;DHT22;6510;51.362;7.370;2022-09-09T16:08:38;14.70;99.90
12885;DHT22;6510;51.362;7.370;2022-09-09T16:11:10;14.70;99.90
12885;DHT22;6510;51.362;7.370;2022-09-09T16:13:36;14.70;99.90
12885;DHT22;6510;51.362;7.370;2022-09-09T16:16:03;14.90;99.90
12885;DHT22;6510;51.362;7.370;2022-09-09T16:18:43;14.80;99.90
12885;DHT22;6510;51.362;7.370;2022-09-09T16:21:16;14.80;99.90
12885;DHT22;6510;51.362;7.370;2022-09-09T16:23:42;14.80;99.90
12885;DHT22;6510;51.362;7.370;2022-09-09T16:26:12;14.80;99.90
12885;DHT22;6510;51.362;7.370;2022-09-09T16:28:41;14.80;99.90
12885;DHT22;6510;51.362;7.370;2022-09-09T16:31:08;14.80;99.90
12885;DHT22;6510;51.362;7.370;2022-09-09T16:33:36;14.70;99.90
12885;DHT22;6510;51.362;7.370;2022-09-09T16:36:09;14.70;99.90
12885;DHT22;6510;51.362;7.370;2022-09-09T16:38:36;14.70;99.90
12885;DHT22;6510;51.362;7.370;2022-09-09T16:41:03;14.70;99.90
12885;DHT22;6510;51.362;7.370;2022-09-09T16:43:30;14.80;99.90
12885;DHT22;6510;51.362;7.370;2022-09-09T16:45:56;14.80;99.90
12885;DHT22;6510;51.362;7.370;2022-09-09T16:48:21;14.70;99.90
12885;DHT22;6510;51.362;7.370;2022-09-09T16:50:47;14.60;99.90
12885;DHT22;6510;51.362;7.370;2022-09-09T16:53:16;14.50;99.90
12885;DHT22;6510;51.362;7.370;2022-09-09T16:55:42;14.40;99.90
12885;DHT22;6510;51.362;7.370;2022-09-09T16:58:10;14.50;99.90
12885;DHT22;6510;51.362;7.370;2022-09-09T17:00:36;14.50;99.90
12885;DHT22;6510;51.362;7.370;2022-09-09T17:03:02;14.50;99.90
12885;DHT22;6510;51.362;7.370;2022-09-09T17:05:28;14.50;99.90
12885;DHT22;6510;51.362;7.370;2022-09-09T17:07:55;14.50;99.90
12885;DHT22;6510;51.362;7.370;2022-09-09T17:10:24;14.50;99.90
12885;DHT22;6510;51.362;7.370;2022-09-09T17:12:50;14.60;99.90
12885;DHT22;6510;51.362;7.370;2022-09-09T17:15:16;14.60;99.90
12885;DHT22;6510;51.362;7.370;2022-09-09T17:17:43;14.60;99.90
12885;DHT22;6510;51.362;7.370;2022-09-09T17:20:11;14.60;99.90
12885;DHT22;6510;51.362;7.370;2022-09-09T17:22:37;14.60;99.90
12885;DHT22;6510;51.362;7.370;2022-09-09T17:25:03;14.60;99.90
12885;DHT22;6510;51.362;7.370;2022-09-09T17:27:29;14.70;99.90
12885;DHT22;6510;51.362;7.370;2022-09-09T17:29:57;14.70;99.90
12885;DHT22;6510;51.362;7.370;2022-09-09T17:32:23;14.70;99.90
12885;DHT22;6510;51.362;7.370;2022-09-09T17:34:49;14.70;99.90
12885;DHT22;6510;51.362;7.370;2022-09-09T17:37:15;14.80;99.90
12885;DHT22;6510;51.362;7.370;2022-09-09T17:39:40;14.80;99.90
12885;DHT22;6510;51.362;7.370;2022-09-09T17:42:06;14.90;99.90
12885;DHT22;6510;51.362;7.370;2022-09-09T17:44:33;14.90;99.90
12885;DHT22;6510;51.362;7.370;2022-09-09T17:46:58;14.90;99.90
12885;DHT22;6510;51.362;7.370;2022-09-09T17:49:25;14.90;99.90
12885;DHT22;6510;51.362;7.370;2022-09-09T17:51:50;14.90;99.90
12885;DHT22;6510;51.362;7.370;2022-09-09T17:54:19;14.90;99.90
12885;DHT22;6510;51.362;7.370;2022-09-09T17:56:46;14.90;99.90
12885;DHT22;6510;51.362;7.370;2022-09-09T17:59:13;14.90;99.90
12885;DHT22;6510;51.362;7.370;2022-09-09T18:01:41;14.90;99.90
12885;DHT22;6510;51.362;7.370;2022-09-09T18:04:10;14.90;99.90
12885;DHT22;6510;51.362;7.370;2022-09-09T18:06:40;15.00;99.90
12885;DHT22;6510;51.362;7.370;2022-09-09T18:09:09;14.90;99.90
12885;DHT22;6510;51.362;7.370;2022-09-09T18:11:37;14.90;99.90
12885;DHT22;6510;51.362;7.370;2022-09-09T18:14:07;14.80;99.90
12885;DHT22;6510;51.362;7.370;2022-09-09T18:16:35;14.80;99.90
12885;DHT22;6510;51.362;7.370;2022-09-09T18:19:03;14.80;99.90
12885;DHT22;6510;51.362;7.370;2022-09-09T18:21:31;14.70;99.90
12885;DHT22;6510;51.362;7.370;2022-09-09T18:23:59;14.70;99.90
12885;DHT22;6510;51.362;7.370;2022-09-09T18:26:26;14.70;99.90
12885;DHT22;6510;51.362;7.370;2022-09-09T18:28:54;14.60;99.90
12885;DHT22;6510;51.362;7.370;2022-09-09T18:31:23;14.60;99.90
12885;DHT22;6510;51.362;7.370;2022-09-09T18:33:50;14.60;99.90
12885;DHT22;6510;51.362;7.370;2022-09-09T18:36:21;14.60;99.90
12885;DHT22;6510;51.362;7.370;2022-09-09T18:38:50;14.60;99.90
12885;DHT22;6510;51.362;7.370;2022-09-09T18:41:31;14.60;99.90
12885;DHT22;6510;51.362;7.370;2022-09-09T18:44:03;14.60;99.90
12885;DHT22;6510;51.362;7.370;2022-09-09T18:46:31;14.60;99.90
12885;DHT22;6510;51.362;7.370;2022-09-09T18:48:57;14.60;99.90
12885;DHT22;6510;51.362;7.370;2022-09-09T18:51:25;14.70;99.90
12885;DHT22;6510;51.362;7.370;2022-09-09T18:54:03;14.60;99.90
12885;DHT22;6510;51.362;7.370;2022-09-09T18:56:30;14.70;99.90
12885;DHT22;6510;51.362;7.370;2022-09-09T18:58:58;14.70;99.90
12885;DHT22;6510;51.362;7.370;2022-09-09T19:01:25;14.70;99.90
12885;DHT22;6510;51.362;7.370;2022-09-09T19:03:51;14.60;99.90
12885;DHT22;6510;51.362;7.370;2022-09-09T19:06:21;14.60;99.90
12885;DHT22;6510;51.362;7.370;2022-09-09T19:08:51;14.70;99.90
12885;DHT22;6510;51.362;7.370;2022-09-09T19:11:18;14.70;99.90
12885;DHT22;6510;51.362;7.370;2022-09-09T19:13:53;14.70;99.90
12885;DHT22;6510;51.362;7.370;2022-09-09T19:16:19;14.70;99.90
12885;DHT22;6510;51.362;7.370;2022-09-09T19:18:46;14.70;99.90
12885;DHT22;6510;51.362;7.370;2022-09-09T19:21:18;14.70;99.90
12885;DHT22;6510;51.362;7.370;2022-09-09T19:23:45;14.70;99.90
12885;DHT22;6510;51.362;7.370;2022-09-09T19:26:12;14.60;99.90
12885;DHT22;6510;51.362;7.370;2022-09-09T19:28:41;14.70;99.90
12885;DHT22;6510;51.362;7.370;2022-09-09T19:31:09;14.60;99.90
12885;DHT22;6510;51.362;7.370;2022-09-09T19:33:35;14.60;99.90
12885;DHT22;6510;51.362;7.370;2022-09-09T19:36:05;14.60;99.90
12885;DHT22;6510;51.362;7.370;2022-09-09T19:38:32;14.50;99.90
12885;DHT22;6510;51.362;7.370;2022-09-09T19:41:16;14.50;99.90
12885;DHT22;6510;51.362;7.370;2022-09-09T19:43:43;14.60;99.90
12885;DHT22;6510;51.362;7.370;2022-09-09T19:46:10;14.50;99.90
12885;DHT22;6510;51.362;7.370;2022-09-09T19:48:41;14.50;99.90
12885;DHT22;6510;51.362;7.370;2022-09-09T19:51:07;14.60;99.90
12885;DHT22;6510;51.362;7.370;2022-09-09T19:53:39;14.50;99.90
12885;DHT22;6510;51.362;7.370;2022-09-09T19:56:05;14.50;99.90
12885;DHT22;6510;51.362;7.370;2022-09-09T19:58:34;14.40;99.90
12885;DHT22;6510;51.362;7.370;2022-09-09T20:01:17;14.50;99.90
12885;DHT22;6510;51.362;7.370;2022-09-09T20:03:45;14.40;99.90
12885;DHT22;6510;51.362;7.370;2022-09-09T20:06:14;14.40;99.90
12885;DHT22;6510;51.362;7.370;2022-09-09T20:08:40;14.40;99.90
12885;DHT22;6510;51.362;7.370;2022-09-09T20:11:08;14.40;99.90
12885;DHT22;6510;51.362;7.370;2022-09-09T20:13:35;14.40;99.90
12885;DHT22;6510;51.362;7.370;2022-09-09T20:16:09;14.30;99.90
12885;DHT22;6510;51.362;7.370;2022-09-09T20:18:37;14.30;99.90